createdAt,value
2023-03-05T07:41:30.413Z,685.00
2023-03-05T07:42:21.838Z,719.00
2023-03-05T07:43:22.729Z,721.00
2023-03-05T07:44:22.727Z,715.00
2023-03-05T07:45:22.703Z,715.00
2023-03-05T07:46:22.821Z,711.00
2023-03-05T07:47:22.848Z,710.00
2023-03-05T07:48:22.693Z,707.00
2023-03-05T07:49:22.677Z,708.00
2023-03-05T07:50:22.679Z,710.00
2023-03-05T07:51:22.647Z,707.00
2023-03-05T07:52:22.654Z,703.00
2023-03-05T07:53:22.775Z,701.00
2023-03-05T07:54:22.644Z,699.00
2023-03-05T07:55:22.608Z,699.00
2023-03-05T07:56:22.631Z,697.00
2023-03-05T07:57:22.592Z,699.00
2023-03-05T07:58:22.582Z,698.00
2023-03-05T07:59:22.729Z,696.00
2023-03-05T08:00:22.562Z,692.00
2023-03-05T08:01:22.551Z,691.00
2023-03-05T08:02:22.565Z,689.00
2023-03-05T08:03:22.544Z,690.00
2023-03-05T08:04:22.574Z,689.00
2023-03-05T08:05:22.644Z,689.00
2023-03-05T08:06:22.529Z,690.00
2023-03-05T08:07:22.501Z,688.00
2023-03-05T08:08:22.500Z,688.00
2023-03-05T08:09:22.471Z,688.00
2023-03-05T08:10:22.486Z,685.00
2023-03-05T08:11:22.623Z,687.00
2023-03-05T08:12:22.432Z,685.00
2023-03-05T08:13:22.444Z,684.00
2023-03-05T08:14:22.483Z,683.00
2023-03-05T08:15:22.430Z,682.00
2023-03-05T08:16:22.454Z,680.00
2023-03-05T08:17:22.518Z,680.00
2023-03-05T08:18:22.373Z,679.00
2023-03-05T08:19:22.410Z,679.00
2023-03-05T08:20:22.351Z,679.00
2023-03-05T08:21:22.339Z,678.00
2023-03-05T08:22:22.346Z,677.00
2023-03-05T08:23:22.489Z,675.00
2023-03-05T08:24:22.311Z,673.00
2023-03-05T08:25:22.302Z,671.00
2023-03-05T08:26:22.293Z,671.00
2023-03-05T08:27:22.271Z,669.00
2023-03-05T08:29:14.092Z,663.00
2023-03-05T08:30:14.812Z,669.00
2023-03-05T08:31:14.890Z,665.00
2023-03-05T08:32:14.805Z,665.00
2023-03-05T08:33:14.881Z,667.00
2023-03-05T08:34:14.810Z,669.00
2023-03-05T08:35:14.783Z,668.00
2023-03-05T08:36:14.764Z,670.00
2023-03-05T08:37:14.753Z,668.00
2023-03-05T08:38:14.744Z,668.00
2023-03-05T08:39:14.770Z,668.00
2023-03-05T08:40:14.914Z,669.00
2023-03-05T08:41:14.714Z,666.00
2023-03-05T08:42:14.708Z,666.00
2023-03-05T08:43:14.714Z,668.00
2023-03-05T08:44:14.670Z,670.00
2023-03-05T08:45:14.665Z,667.00
2023-03-05T08:46:14.852Z,664.00
2023-03-05T08:47:14.644Z,661.00
2023-03-05T08:48:14.629Z,660.00
2023-03-05T08:49:14.629Z,658.00
2023-03-05T08:50:14.623Z,661.00
2023-03-05T08:51:14.618Z,662.00
2023-03-05T08:52:14.744Z,664.00
2023-03-05T08:53:14.623Z,666.00
2023-03-05T08:54:14.584Z,669.00
2023-03-05T08:55:14.587Z,670.00
2023-03-05T08:56:14.562Z,672.00
2023-03-05T08:57:14.560Z,672.00
2023-03-05T08:58:14.671Z,673.00
2023-03-05T08:59:14.542Z,674.00
2023-03-05T09:00:14.513Z,674.00
2023-03-05T09:01:14.596Z,673.00
2023-03-05T09:02:14.503Z,674.00
2023-03-05T09:03:14.620Z,674.00
2023-03-05T09:04:14.609Z,677.00
2023-03-05T09:05:14.472Z,675.00
2023-03-05T09:06:14.876Z,677.00
2023-03-05T09:07:14.462Z,679.00
2023-03-05T09:08:14.438Z,683.00
2023-03-05T09:09:14.599Z,685.00
2023-03-05T09:10:14.588Z,687.00
2023-03-05T09:11:14.402Z,687.00
2023-03-05T09:12:14.779Z,690.00
2023-03-05T09:13:14.760Z,693.00
2023-03-05T09:14:14.360Z,693.00
2023-03-05T09:15:14.369Z,692.00
2023-03-05T09:16:14.528Z,692.00
2023-03-05T09:17:14.369Z,693.00
2023-03-05T09:18:14.320Z,695.00
2023-03-05T09:19:14.313Z,696.00
2023-03-05T09:20:14.305Z,696.00
2023-03-05T09:21:14.299Z,697.00
2023-03-05T09:22:14.430Z,699.00
2023-03-05T09:23:14.280Z,699.00
2023-03-05T09:24:14.267Z,703.00
2023-03-05T09:25:14.274Z,706.00
2023-03-05T09:26:14.246Z,711.00
2023-03-05T09:27:14.245Z,715.00
2023-03-05T09:28:15.496Z,716.00
2023-03-05T09:29:21.927Z,717.00
2023-03-05T09:30:14.197Z,723.00
2023-03-05T09:31:14.238Z,726.00
2023-03-05T09:32:14.218Z,732.00
2023-03-05T09:33:14.282Z,733.00
2023-03-05T09:34:14.420Z,735.00
2023-03-05T09:35:15.943Z,739.00
2023-03-05T09:36:14.139Z,742.00
2023-03-05T09:37:14.122Z,744.00
2023-03-05T09:38:14.120Z,747.00
2023-03-05T09:39:14.103Z,746.00
2023-03-05T09:40:14.252Z,746.00
2023-03-05T09:41:14.093Z,746.00
2023-03-05T09:42:14.081Z,745.00
2023-03-05T09:43:14.077Z,747.00
2023-03-05T09:44:14.048Z,747.00
2023-03-05T09:45:14.093Z,748.00
2023-03-05T09:46:14.226Z,748.00
2023-03-05T09:47:14.740Z,748.00
2023-03-05T09:48:14.003Z,748.00
2023-03-05T09:49:14.011Z,746.00
2023-03-05T09:50:13.988Z,746.00
2023-03-05T09:51:13.994Z,745.00
2023-03-05T09:52:14.147Z,744.00
2023-03-05T09:53:13.974Z,744.00
2023-03-05T09:54:13.959Z,742.00
2023-03-05T09:55:13.939Z,741.00
2023-03-05T09:56:13.934Z,740.00
2023-03-05T09:57:13.964Z,738.00
2023-03-05T09:58:14.058Z,736.00
2023-03-05T09:59:16.493Z,735.00
2023-03-05T10:00:13.880Z,737.00
2023-03-05T10:01:13.878Z,737.00
2023-03-05T10:02:13.923Z,736.00
2023-03-05T10:03:13.946Z,738.00
2023-03-05T10:04:14.117Z,738.00
2023-03-05T10:05:13.834Z,742.00
2023-03-05T10:06:13.849Z,743.00
2023-03-05T10:07:15.853Z,742.00
2023-03-05T10:08:13.812Z,744.00
2023-03-05T10:09:13.810Z,749.00
2023-03-05T10:10:13.942Z,749.00
2023-03-05T10:11:13.778Z,751.00
2023-03-05T10:12:14.749Z,752.00
2023-03-05T10:13:13.759Z,755.00
2023-03-05T10:14:13.761Z,759.00
2023-03-05T10:15:13.755Z,761.00
2023-03-05T10:16:13.957Z,758.00
2023-03-05T10:17:13.716Z,758.00
2023-03-05T10:18:13.748Z,758.00
2023-03-05T10:19:13.710Z,759.00
2023-03-05T10:20:13.682Z,758.00
2023-03-05T10:21:13.663Z,756.00
2023-03-05T10:22:13.909Z,757.00
2023-03-05T10:23:13.647Z,756.00
2023-03-05T10:24:13.639Z,759.00
2023-03-05T10:25:13.658Z,763.00
2023-03-05T10:26:13.626Z,764.00
2023-03-05T10:27:13.634Z,765.00
2023-03-05T10:28:13.761Z,765.00
2023-03-05T10:29:13.583Z,766.00
2023-03-05T10:30:13.615Z,766.00
2023-03-05T10:31:13.609Z,767.00
2023-03-05T10:32:13.718Z,769.00
2023-03-05T10:33:13.538Z,769.00
2023-03-05T10:34:13.861Z,770.00
2023-03-05T10:35:13.542Z,769.00
2023-03-05T10:36:13.559Z,769.00
2023-03-05T10:37:13.506Z,770.00
2023-03-05T10:38:13.500Z,771.00
2023-03-05T10:39:13.483Z,769.00
2023-03-05T10:40:13.623Z,769.00
2023-03-05T10:41:13.463Z,770.00
2023-03-05T10:42:13.447Z,772.00
2023-03-05T10:43:13.464Z,771.00
2023-03-05T10:44:13.433Z,773.00
2023-03-05T10:45:14.272Z,771.00
2023-03-05T10:46:13.602Z,772.00
2023-03-05T10:47:13.400Z,773.00
2023-03-05T10:48:13.392Z,775.00
2023-03-05T10:49:13.373Z,775.00
2023-03-05T10:50:13.360Z,774.00
2023-03-05T10:51:13.459Z,778.00
2023-03-05T10:52:13.522Z,776.00
2023-03-05T10:53:13.341Z,777.00
2023-03-05T10:54:13.376Z,778.00
2023-03-05T10:55:13.390Z,780.00
2023-03-05T10:56:13.306Z,783.00
2023-03-05T10:57:13.324Z,782.00
2023-03-05T10:58:13.470Z,783.00
2023-03-05T10:59:13.284Z,785.00
2023-03-05T11:00:13.292Z,789.00
2023-03-05T11:01:13.291Z,792.00
2023-03-05T11:02:13.272Z,793.00
2023-03-05T11:03:13.231Z,793.00
2023-03-05T11:04:13.264Z,795.00
2023-03-05T11:05:13.213Z,798.00
2023-03-05T11:06:13.193Z,800.00
2023-03-05T11:07:13.187Z,805.00
2023-03-05T11:08:13.177Z,807.00
2023-03-05T11:09:13.171Z,809.00
2023-03-05T11:10:13.286Z,811.00
2023-03-05T11:11:13.150Z,811.00
2023-03-05T11:12:13.139Z,813.00
2023-03-05T11:13:13.153Z,814.00
2023-03-05T11:14:13.145Z,819.00
2023-03-05T11:15:13.120Z,826.00
2023-03-05T11:16:13.269Z,833.00
2023-03-05T11:17:13.085Z,839.00
2023-03-05T11:18:13.073Z,840.00
2023-03-05T11:19:13.266Z,839.00
2023-03-05T11:20:13.459Z,840.00
2023-03-05T11:21:14.090Z,840.00
2023-03-05T11:22:13.154Z,841.00
2023-03-05T11:23:13.029Z,840.00
2023-03-05T11:24:13.000Z,835.00
2023-03-05T11:25:13.031Z,833.00
2023-03-05T11:26:12.988Z,831.00
2023-03-05T11:27:12.975Z,832.00
2023-03-05T11:28:15.258Z,833.00
2023-03-05T11:29:20.444Z,834.00
2023-03-05T11:30:12.949Z,827.00
2023-03-05T11:31:12.987Z,826.00
2023-03-05T11:32:12.964Z,823.00
2023-03-05T11:33:12.936Z,824.00
2023-03-05T11:34:13.066Z,824.00
2023-03-05T11:35:12.943Z,825.00
2023-03-05T11:36:12.891Z,824.00
2023-03-05T11:37:12.882Z,825.00
2023-03-05T11:38:12.859Z,825.00
2023-03-05T11:39:12.869Z,829.00
2023-03-05T11:40:13.138Z,835.00
2023-03-05T11:41:12.844Z,823.00
2023-03-05T11:42:12.831Z,788.00
2023-03-05T11:43:12.834Z,783.00
2023-03-05T11:44:13.669Z,790.00
2023-03-05T11:45:12.818Z,794.00
2023-03-05T11:46:12.941Z,799.00
2023-03-05T11:47:12.772Z,803.00
2023-03-05T11:48:12.770Z,806.00
2023-03-05T11:49:12.769Z,809.00
2023-03-05T11:50:12.770Z,810.00
2023-03-05T11:51:12.742Z,815.00
2023-03-05T11:52:12.858Z,817.00
2023-03-05T11:53:12.769Z,816.00
2023-03-05T11:54:12.725Z,815.00
2023-03-05T11:55:12.700Z,816.00
2023-03-05T11:56:12.710Z,814.00
2023-03-05T11:57:12.688Z,809.00
2023-03-05T11:58:12.866Z,803.00
2023-03-05T11:59:12.657Z,800.00
2023-03-05T12:00:12.683Z,799.00
2023-03-05T12:01:12.631Z,797.00
2023-03-05T12:02:12.616Z,793.00
2023-03-05T12:03:12.661Z,791.00
2023-03-05T12:04:12.709Z,790.00
2023-03-05T12:05:12.588Z,789.00
2023-03-05T12:06:12.581Z,787.00
2023-03-05T12:07:12.585Z,787.00
2023-03-05T12:08:12.582Z,789.00
2023-03-05T12:09:12.572Z,786.00
2023-03-05T12:10:12.708Z,786.00
2023-03-05T12:11:12.575Z,785.00
2023-03-05T12:12:12.527Z,784.00
2023-03-05T12:13:12.510Z,787.00
2023-03-05T12:14:12.530Z,786.00
2023-03-05T12:15:12.514Z,787.00
2023-03-05T12:16:12.686Z,787.00
2023-03-05T12:17:12.469Z,785.00
2023-03-05T12:18:12.452Z,783.00
2023-03-05T12:19:12.453Z,779.00
2023-03-05T12:20:12.538Z,778.00
2023-03-05T12:21:12.422Z,777.00
2023-03-05T12:22:12.585Z,775.00
2023-03-05T12:23:12.404Z,775.00
2023-03-05T12:24:12.398Z,775.00
2023-03-05T12:25:12.385Z,776.00
2023-03-05T12:26:12.393Z,771.00
2023-03-05T12:27:12.361Z,771.00
2023-03-05T12:28:12.545Z,771.00
2023-03-05T12:29:19.475Z,770.00
2023-03-05T12:30:12.326Z,773.00
2023-03-05T12:31:12.340Z,770.00
2023-03-05T12:32:12.377Z,771.00
2023-03-05T12:33:12.307Z,766.00
2023-03-05T12:34:12.426Z,764.00
2023-03-05T12:35:12.273Z,764.00
2023-03-05T12:36:12.268Z,763.00
2023-03-05T12:37:12.260Z,766.00
2023-03-05T12:38:26.193Z,765.00
2023-03-05T12:39:12.240Z,767.00
2023-03-05T12:40:12.394Z,767.00
2023-03-05T12:41:12.221Z,766.00
2023-03-05T12:42:12.201Z,765.00
2023-03-05T12:43:12.188Z,766.00
2023-03-05T12:44:12.191Z,767.00
2023-03-05T12:45:12.199Z,768.00
2023-03-05T12:46:12.435Z,768.00
2023-03-05T12:47:12.178Z,770.00
2023-03-05T12:48:12.317Z,774.00
2023-03-05T12:49:12.138Z,775.00
2023-03-05T12:50:12.150Z,779.00
2023-03-05T12:51:12.126Z,784.00
2023-03-05T12:52:12.278Z,788.00
2023-03-05T12:53:12.108Z,790.00
2023-03-05T12:54:12.088Z,794.00
2023-03-05T12:55:12.068Z,793.00
2023-03-05T12:56:12.857Z,793.00
2023-03-05T12:57:12.050Z,797.00
2023-03-05T12:58:12.246Z,804.00
2023-03-05T12:59:12.026Z,805.00
2023-03-05T13:00:12.031Z,808.00
2023-03-05T13:01:12.152Z,813.00
2023-03-05T13:02:12.000Z,819.00
2023-03-05T13:03:11.980Z,823.00
2023-03-05T13:04:12.070Z,828.00
2023-03-05T13:05:11.957Z,848.00
2023-03-05T13:06:12.007Z,860.00
2023-03-05T13:07:11.940Z,868.00
2023-03-05T13:08:14.771Z,871.00
2023-03-05T13:09:12.023Z,870.00
2023-03-05T13:10:12.086Z,872.00
2023-03-05T13:11:11.897Z,875.00
2023-03-05T13:12:11.936Z,879.00
2023-03-05T13:13:11.876Z,878.00
2023-03-05T13:14:11.895Z,882.00
2023-03-05T13:15:11.913Z,916.00
2023-03-05T13:16:12.057Z,947.00
2023-03-05T13:17:11.829Z,959.00
2023-03-05T13:18:11.845Z,962.00
2023-03-05T13:19:11.811Z,964.00
2023-03-05T13:20:11.833Z,971.00
2023-03-05T13:21:11.803Z,975.00
2023-03-05T13:22:11.955Z,969.00
2023-03-05T13:23:11.766Z,968.00
2023-03-05T13:24:13.740Z,970.00
2023-03-05T13:25:11.757Z,973.00
2023-03-05T13:26:11.738Z,976.00
2023-03-05T13:27:11.727Z,980.00
2023-03-05T13:28:11.879Z,978.00
2023-03-05T13:29:19.071Z,984.00
2023-03-05T13:30:11.811Z,992.00
2023-03-05T13:31:11.697Z,999.00
2023-03-05T13:32:11.726Z,1001.00
2023-03-05T13:33:11.701Z,999.00
2023-03-05T13:34:11.820Z,994.00
2023-03-05T13:35:11.654Z,997.00
2023-03-05T13:36:12.098Z,1038.00
2023-03-05T13:37:11.622Z,1067.00
2023-03-05T13:38:11.984Z,1077.00
2023-03-05T13:39:11.659Z,1082.00
2023-03-05T13:40:11.818Z,1088.00
2023-03-05T13:41:11.613Z,1095.00
2023-03-05T13:42:11.605Z,1107.00
2023-03-05T13:43:11.689Z,1113.00
2023-03-05T13:44:11.557Z,1122.00
2023-03-05T13:45:11.535Z,1124.00
2023-03-05T13:46:11.929Z,1066.00
2023-03-05T13:47:11.568Z,1035.00
2023-03-05T13:48:11.516Z,1014.00
2023-03-05T13:49:11.521Z,961.00
2023-03-05T13:50:11.479Z,943.00
2023-03-05T13:51:11.476Z,900.00
2023-03-05T13:52:11.664Z,887.00
2023-03-05T13:53:11.456Z,890.00
2023-03-05T13:54:11.450Z,891.00
2023-03-05T13:55:11.472Z,894.00
2023-03-05T13:56:11.425Z,891.00
2023-03-05T13:57:11.404Z,895.00
2023-03-05T13:58:11.539Z,907.00
2023-03-05T13:59:11.391Z,978.00
2023-03-05T14:00:11.383Z,984.00
2023-03-05T14:01:11.426Z,989.00
2023-03-05T14:02:11.364Z,998.00
2023-03-05T14:03:11.411Z,1000.00
2023-03-05T14:04:11.496Z,999.00
2023-03-05T14:05:11.398Z,997.00
2023-03-05T14:06:11.323Z,997.00
2023-03-05T14:07:11.344Z,990.00
2023-03-05T14:08:11.296Z,975.00
2023-03-05T14:09:11.356Z,930.00
2023-03-05T14:10:11.414Z,918.00
2023-03-05T14:11:11.291Z,916.00
2023-03-05T14:12:11.292Z,918.00
2023-03-05T14:13:11.242Z,922.00
2023-03-05T14:14:11.249Z,927.00
2023-03-05T14:15:11.228Z,937.00
2023-03-05T14:16:11.411Z,946.00
2023-03-05T14:17:11.220Z,954.00
2023-03-05T14:18:11.236Z,959.00
2023-03-05T14:19:11.231Z,958.00
2023-03-05T14:20:11.186Z,961.00
2023-03-05T14:21:11.192Z,961.00
2023-03-05T14:22:11.318Z,960.00
2023-03-05T14:23:13.482Z,956.00
2023-03-05T14:24:11.226Z,953.00
2023-03-05T14:25:11.152Z,951.00
2023-03-05T14:26:11.116Z,949.00
2023-03-05T14:27:11.141Z,943.00
2023-03-05T14:28:11.282Z,938.00
2023-03-05T14:29:18.514Z,936.00
2023-03-05T14:30:11.071Z,935.00
2023-03-05T14:31:11.071Z,934.00
2023-03-05T14:32:11.075Z,931.00
2023-03-05T14:33:11.077Z,931.00
2023-03-05T14:34:11.187Z,928.00
2023-03-05T14:35:11.043Z,923.00
2023-03-05T14:36:11.049Z,918.00
2023-03-05T14:37:10.996Z,911.00
2023-03-05T14:38:10.983Z,905.00
2023-03-05T14:39:10.977Z,901.00
2023-03-05T14:40:11.061Z,896.00
2023-03-05T14:41:10.953Z,889.00
2023-03-05T14:42:10.969Z,885.00
2023-03-05T14:43:10.936Z,883.00
2023-03-05T14:44:10.929Z,884.00
2023-03-05T14:45:10.914Z,884.00
2023-03-05T14:46:12.406Z,882.00
2023-03-05T14:47:10.892Z,880.00
2023-03-05T14:48:10.895Z,872.00
2023-03-05T14:49:10.877Z,867.00
2023-03-05T14:50:10.940Z,861.00
2023-03-05T14:51:10.867Z,858.00
2023-03-05T14:52:11.310Z,861.00
2023-03-05T14:53:10.843Z,869.00
2023-03-05T14:54:10.825Z,872.00
2023-03-05T14:55:10.818Z,876.00
2023-03-05T14:56:10.805Z,877.00
2023-03-05T14:57:10.795Z,878.00
2023-03-05T14:58:10.931Z,877.00
2023-03-05T14:59:10.801Z,873.00
2023-03-05T15:00:10.773Z,869.00
2023-03-05T15:01:10.791Z,864.00
2023-03-05T15:02:10.791Z,860.00
2023-03-05T15:03:10.730Z,860.00
2023-03-05T15:04:10.859Z,860.00
2023-03-05T15:05:10.722Z,854.00
2023-03-05T15:06:10.701Z,837.00
2023-03-05T15:07:10.681Z,810.00
2023-03-05T15:08:10.725Z,790.00
2023-03-05T15:09:10.665Z,779.00
2023-03-05T15:10:10.708Z,773.00
2023-03-05T15:11:11.558Z,773.00
2023-03-05T15:12:10.637Z,776.00
2023-03-05T15:13:10.641Z,782.00
2023-03-05T15:14:10.668Z,788.00
2023-03-05T15:15:10.608Z,791.00
2023-03-05T15:16:10.772Z,793.00
2023-03-05T15:17:10.592Z,794.00
2023-03-05T15:18:10.571Z,795.00
2023-03-05T15:19:10.557Z,801.00
2023-03-05T15:20:10.567Z,810.00
2023-03-05T15:21:10.539Z,816.00
2023-03-05T15:22:10.723Z,822.00
2023-03-05T15:23:10.511Z,826.00
2023-03-05T15:24:11.488Z,828.00
2023-03-05T15:25:10.494Z,828.00
2023-03-05T15:26:10.596Z,831.00
2023-03-05T15:27:10.496Z,832.00
2023-03-05T15:28:10.629Z,831.00
2023-03-05T15:29:18.058Z,830.00
2023-03-05T15:30:10.446Z,831.00
2023-03-05T15:31:10.504Z,833.00
2023-03-05T15:32:10.472Z,834.00
2023-03-05T15:33:10.430Z,832.00
2023-03-05T15:34:10.570Z,831.00
2023-03-05T15:35:10.417Z,829.00
2023-03-05T15:36:10.431Z,829.00
2023-03-05T15:37:10.364Z,830.00
2023-03-05T15:38:10.377Z,829.00
2023-03-05T15:39:10.352Z,830.00
2023-03-05T15:40:10.506Z,831.00
2023-03-05T15:41:10.349Z,830.00
2023-03-05T15:42:10.352Z,832.00
2023-03-05T15:43:10.354Z,833.00
2023-03-05T15:44:10.339Z,837.00
2023-03-05T15:45:10.294Z,839.00
2023-03-05T15:46:10.465Z,841.00
2023-03-05T15:47:10.274Z,843.00
2023-03-05T15:48:10.347Z,841.00
2023-03-05T15:49:10.246Z,838.00
2023-03-05T15:50:10.261Z,832.00
2023-03-05T15:51:10.228Z,828.00
2023-03-05T15:52:10.414Z,830.00
2023-03-05T15:53:10.210Z,835.00
2023-03-05T15:54:10.196Z,839.00
2023-03-05T15:55:10.190Z,841.00
2023-03-05T15:56:10.187Z,844.00
2023-03-05T15:57:10.207Z,849.00
2023-03-05T15:58:10.466Z,850.00
2023-03-05T15:59:10.178Z,851.00
2023-03-05T16:00:10.184Z,847.00
2023-03-05T16:01:10.130Z,839.00
2023-03-05T16:02:10.140Z,837.00
2023-03-05T16:03:10.139Z,836.00
2023-03-05T16:04:10.258Z,838.00
2023-03-05T16:05:10.090Z,841.00
2023-03-05T16:06:10.097Z,840.00
2023-03-05T16:07:10.066Z,842.00
2023-03-05T16:08:10.057Z,844.00
2023-03-05T16:09:10.082Z,844.00
2023-03-05T16:10:10.318Z,845.00
2023-03-05T16:11:10.025Z,845.00
2023-03-05T16:12:10.030Z,847.00
2023-03-05T16:13:10.036Z,848.00
2023-03-05T16:14:10.031Z,847.00
2023-03-05T16:15:10.001Z,846.00
2023-03-05T16:16:10.177Z,846.00
2023-03-05T16:17:09.963Z,848.00
2023-03-05T16:18:09.962Z,849.00
2023-03-05T16:19:09.946Z,851.00
2023-03-05T16:20:09.952Z,851.00
2023-03-05T16:21:09.934Z,850.00
2023-03-05T16:22:10.066Z,849.00
2023-03-05T16:23:09.904Z,847.00
2023-03-05T16:24:09.897Z,842.00
2023-03-05T16:25:09.877Z,838.00
2023-03-05T16:26:09.869Z,833.00
2023-03-05T16:27:09.876Z,829.00
2023-03-05T16:28:10.009Z,826.00
2023-03-05T16:29:17.085Z,822.00
2023-03-05T16:30:09.819Z,816.00
2023-03-05T16:31:09.834Z,812.00
2023-03-05T16:32:09.868Z,807.00
2023-03-05T16:33:09.804Z,803.00
2023-03-05T16:34:09.943Z,799.00
2023-03-05T16:35:09.790Z,797.00
2023-03-05T16:36:09.764Z,798.00
2023-03-05T16:37:09.767Z,801.00
2023-03-05T16:38:09.761Z,801.00
2023-03-05T16:39:09.736Z,805.00
2023-03-05T16:40:09.910Z,813.00
2023-03-05T16:41:09.729Z,819.00
2023-03-05T16:42:09.701Z,826.00
2023-03-05T16:43:09.706Z,833.00
2023-03-05T16:44:09.691Z,837.00
2023-03-05T16:45:09.676Z,838.00
2023-03-05T16:46:09.751Z,837.00
2023-03-05T16:47:09.676Z,836.00
2023-03-05T16:48:09.634Z,835.00
2023-03-05T16:49:09.652Z,832.00
2023-03-05T16:50:09.647Z,829.00
2023-03-05T16:51:09.626Z,826.00
2023-03-05T16:52:18.620Z,826.00
2023-03-05T16:53:09.591Z,825.00
2023-03-05T16:54:10.200Z,824.00
2023-03-05T16:55:09.636Z,822.00
2023-03-05T16:56:09.652Z,822.00
2023-03-05T16:57:09.631Z,822.00
2023-03-05T16:58:09.800Z,820.00
2023-03-05T16:59:09.541Z,820.00
2023-03-05T17:00:09.526Z,823.00
2023-03-05T17:01:09.549Z,822.00
2023-03-05T17:02:09.515Z,819.00
2023-03-05T17:03:09.491Z,817.00
2023-03-05T17:04:09.739Z,815.00
2023-03-05T17:05:09.530Z,816.00
2023-03-05T17:06:09.518Z,817.00
2023-03-05T17:07:09.503Z,818.00
2023-03-05T17:08:09.490Z,816.00
2023-03-05T17:09:09.475Z,816.00
2023-03-05T17:10:09.634Z,816.00
2023-03-05T17:11:09.401Z,820.00
2023-03-05T17:12:09.443Z,825.00
2023-03-05T17:13:09.433Z,832.00
2023-03-05T17:14:09.424Z,839.00
2023-03-05T17:15:09.424Z,846.00
2023-03-05T17:16:09.656Z,849.00
2023-03-05T17:17:09.406Z,852.00
2023-03-05T17:18:09.375Z,853.00
2023-03-05T17:19:09.382Z,854.00
2023-03-05T17:20:09.391Z,852.00
2023-03-05T17:21:09.359Z,850.00
2023-03-05T17:22:09.509Z,851.00
2023-03-05T17:23:09.358Z,852.00
2023-03-05T17:24:09.322Z,849.00
2023-03-05T17:25:09.311Z,849.00
2023-03-05T17:26:09.298Z,849.00
2023-03-05T17:27:09.250Z,852.00
2023-03-05T17:28:09.249Z,851.00
2023-03-05T17:29:16.614Z,852.00
2023-03-05T17:30:09.217Z,855.00
2023-03-05T17:31:09.202Z,856.00
2023-03-05T17:32:09.211Z,856.00
2023-03-05T17:33:09.200Z,856.00
2023-03-05T17:34:09.310Z,854.00
2023-03-05T17:35:09.193Z,854.00
2023-03-05T17:36:09.134Z,855.00
2023-03-05T17:37:09.129Z,855.00
2023-03-05T17:38:09.169Z,858.00
2023-03-05T17:39:09.113Z,862.00
2023-03-05T17:40:09.265Z,862.00
2023-03-05T17:41:09.117Z,862.00
2023-03-05T17:42:09.357Z,862.00
2023-03-05T17:43:09.074Z,861.00
2023-03-05T17:44:09.157Z,858.00
2023-03-05T17:45:09.128Z,856.00
2023-03-05T17:46:09.324Z,856.00
2023-03-05T17:47:09.049Z,858.00
2023-03-05T17:48:09.015Z,856.00
2023-03-05T17:49:09.025Z,855.00
2023-03-05T17:50:08.993Z,858.00
2023-03-05T17:51:08.985Z,862.00
2023-03-05T17:52:09.133Z,863.00
2023-03-05T17:53:08.973Z,872.00
2023-03-05T17:54:08.958Z,879.00
2023-03-05T17:55:08.961Z,885.00
2023-03-05T17:56:08.948Z,885.00
2023-03-05T17:57:08.929Z,884.00
2023-03-05T17:58:09.053Z,884.00
2023-03-05T17:59:08.915Z,885.00
2023-03-05T18:00:08.901Z,883.00
2023-03-05T18:01:08.921Z,882.00
2023-03-05T18:02:08.877Z,880.00
2023-03-05T18:03:08.881Z,875.00
2023-03-05T18:04:09.149Z,868.00
2023-03-05T18:05:08.865Z,862.00
2023-03-05T18:06:08.830Z,858.00
2023-03-05T18:07:08.839Z,855.00
2023-03-05T18:08:08.811Z,852.00
2023-03-05T18:09:08.822Z,851.00
2023-03-05T18:10:08.959Z,849.00
2023-03-05T18:11:08.786Z,845.00
2023-03-05T18:12:08.766Z,844.00
2023-03-05T18:13:08.782Z,839.00
2023-03-05T18:14:08.768Z,835.00
2023-03-05T18:15:08.748Z,831.00
2023-03-05T18:16:08.910Z,828.00
2023-03-05T18:17:08.722Z,822.00
2023-03-05T18:18:08.705Z,819.00
2023-03-05T18:19:08.706Z,818.00
2023-03-05T18:20:08.700Z,816.00
2023-03-05T18:21:08.691Z,813.00
2023-03-05T18:22:08.855Z,812.00
2023-03-05T18:23:08.668Z,811.00
2023-03-05T18:24:08.703Z,806.00
2023-03-05T18:25:08.650Z,803.00
2023-03-05T18:26:08.627Z,799.00
2023-03-05T18:27:08.637Z,797.00
2023-03-05T18:28:08.733Z,793.00
2023-03-05T18:29:18.579Z,795.00
2023-03-05T18:30:08.574Z,794.00
2023-03-05T18:31:08.704Z,797.00
2023-03-05T18:32:08.603Z,794.00
2023-03-05T18:33:08.548Z,793.00
2023-03-05T18:34:08.691Z,785.00
2023-03-05T18:35:08.529Z,786.00
2023-03-05T18:36:08.522Z,789.00
2023-03-05T18:37:08.513Z,792.00
2023-03-05T18:38:08.491Z,800.00
2023-03-05T18:39:08.498Z,806.00
2023-03-05T18:40:08.604Z,813.00
2023-03-05T18:41:08.454Z,817.00
2023-03-05T18:42:08.459Z,822.00
2023-03-05T18:43:08.437Z,826.00
2023-03-05T18:44:08.429Z,824.00
2023-03-05T18:45:08.442Z,823.00
2023-03-05T18:46:08.612Z,824.00
2023-03-05T18:47:08.397Z,827.00
2023-03-05T18:48:08.399Z,827.00
2023-03-05T18:49:08.379Z,826.00
2023-03-05T18:50:08.360Z,824.00
2023-03-05T18:51:08.367Z,821.00
2023-03-05T18:52:08.507Z,817.00
2023-03-05T18:53:08.344Z,817.00
2023-03-05T18:54:08.323Z,818.00
2023-03-05T18:55:08.318Z,821.00
2023-03-05T18:56:08.326Z,823.00
2023-03-05T18:57:08.324Z,824.00
2023-03-05T18:58:08.416Z,820.00
2023-03-05T18:59:08.298Z,818.00
2023-03-05T19:00:08.257Z,817.00
2023-03-05T19:01:08.299Z,816.00
2023-03-05T19:02:08.282Z,815.00
2023-03-05T19:03:08.231Z,812.00
2023-03-05T19:04:08.467Z,807.00
2023-03-05T19:05:08.230Z,806.00
2023-03-05T19:06:08.199Z,804.00
2023-03-05T19:07:08.230Z,801.00
2023-03-05T19:08:08.214Z,801.00
2023-03-05T19:09:08.173Z,801.00
2023-03-05T19:10:08.492Z,801.00
2023-03-05T19:11:08.163Z,802.00
2023-03-05T19:12:08.140Z,801.00
2023-03-05T19:13:08.133Z,802.00
2023-03-05T19:14:08.128Z,803.00
2023-03-05T19:15:08.117Z,807.00
2023-03-05T19:16:08.316Z,810.00
2023-03-05T19:17:08.100Z,813.00
2023-03-05T19:18:08.072Z,815.00
2023-03-05T19:19:08.084Z,816.00
2023-03-05T19:20:08.114Z,812.00
2023-03-05T19:21:08.117Z,805.00
2023-03-05T19:22:08.233Z,803.00
2023-03-05T19:23:08.093Z,801.00
2023-03-05T19:24:08.072Z,802.00
2023-03-05T19:25:08.065Z,804.00
2023-03-05T19:26:08.063Z,807.00
2023-03-05T19:27:08.045Z,810.00
2023-03-05T19:28:08.162Z,813.00
2023-03-05T19:29:15.185Z,815.00
2023-03-05T19:30:08.007Z,814.00
2023-03-05T19:31:08.054Z,815.00
2023-03-05T19:32:08.063Z,814.00
2023-03-05T19:33:07.979Z,811.00
2023-03-05T19:34:08.108Z,810.00
2023-03-05T19:35:07.965Z,810.00
2023-03-05T19:36:07.941Z,810.00
2023-03-05T19:37:07.937Z,811.00
2023-03-05T19:38:07.952Z,812.00
2023-03-05T19:39:07.917Z,813.00
2023-03-05T19:40:08.078Z,813.00
2023-03-05T19:41:07.896Z,813.00
2023-03-05T19:42:07.884Z,818.00
2023-03-05T19:43:07.870Z,821.00
2023-03-05T19:44:07.856Z,824.00
2023-03-05T19:45:07.864Z,826.00
2023-03-05T19:46:08.081Z,826.00
2023-03-05T19:47:07.875Z,828.00
2023-03-05T19:48:07.812Z,831.00
2023-03-05T19:49:07.821Z,835.00
2023-03-05T19:50:07.792Z,839.00
2023-03-05T19:51:07.796Z,844.00
2023-03-05T19:52:07.961Z,850.00
2023-03-05T19:53:07.772Z,851.00
2023-03-05T19:54:07.770Z,849.00
2023-03-05T19:55:07.745Z,849.00
2023-03-05T19:56:07.735Z,849.00
2023-03-05T19:57:07.721Z,846.00
2023-03-05T19:58:07.880Z,844.00
2023-03-05T19:59:07.706Z,841.00
2023-03-05T20:00:07.692Z,837.00
2023-03-05T20:01:07.702Z,834.00
2023-03-05T20:02:07.668Z,832.00
2023-03-05T20:03:07.661Z,834.00
2023-03-05T20:04:07.795Z,836.00
2023-03-05T20:05:07.638Z,836.00
2023-03-05T20:06:07.643Z,836.00
2023-03-05T20:07:07.622Z,835.00
2023-03-05T20:08:07.640Z,837.00
2023-03-05T20:09:08.121Z,840.00
2023-03-05T20:10:08.003Z,840.00